Kin-Li-Chee, Arizona
Current Conditions -  °F | °C
As of 2:53 AM on Saturday 01 Nov 2014 (Local Time) from KRQE Reporting Station
Few Clouds Few Clouds  
Wind Chill: 51°   Ceiling: Unl
Heat Index: 51°   Visibility: 10mi
Dew Point: 40°   Wind: 5mph
Humidity: 66%   Direction: 90°E
Pressure: 30.14"   Gusts: NA
Location:  35.6053°N, 109.458°W
Report Text: KRQE 010853Z AUTO 09004KT 10SM FEW055 11/04 A3014 RMK AO2 RAB08E18 SLP104 P0000 60000 T01060044 56010 TSNO
Loading
Personal Weather Stations






























Interactive Weather Map
Tropical Storm Tracking
New forecast layout! Learn more

10-Day Weather Forecast

Advertisements
Track Severe Weather on mobile